Terminal Aerodrome Forecast
Issued by NWS

Home | Current Version | Previous Version | Text Only | Print | Product List | Glossary On
Versions: 1 2 3 4 5 6 7 8 9 10 11 12 13
000
FTUS46 KPDT 162300
TAFALW
TAF
KALW 162320Z 1700/1724 23011KT P6SM BKN050 OVC080
     FM170800 17010KT P6SM BKN050 OVC080
     FM171500 20007KT P6SM SCT040 BKN050 OVC060
     FM172100 20008KT 6SM -RA BR BKN020 OVC030=

USA.gov is the U.S. government's official web portal to all federal, state and local government web resources and services.